YSH weather

Smiths Falls-Montague (Russ Beach) Airport
Smiths Falls, Ontario, Canada

Public forecast

Using degrees Celsius for public forecast. Weather courtesy of forecast.io.

Closest aviation weather report (METAR) to Smiths Falls-Montague (Russ Beach) Airport

Closest report is Ottawa Macdonald-Cartier International Airport, 25.4 nm (47.0 km) NNE. Retrieved 2020/06/05 01:00 UTC (1 hour ago):

CYOW 050100Z 04004KT 15SM SCT060TCU SCT210 BKN270 21/14 A2975 RMK TCU3CI1CI3 SLP077 DENSITY ALT 1400FT

Closest aviation forecast (TAF) to Smiths Falls-Montague (Russ Beach) Airport

Closest forecast is Ottawa Macdonald-Cartier International Airport, 25.4 nm (47.0 km) NNE. Retrieved 2020-06-05 00:42 UTC (1 hour ago):

TAF CYOW 042338Z 0500/0524 25005KT P6SM BKN060 FM050300 VRB03KT P6SM SKC PROB30 0506/0510 1SM BR FM051200 26008KT P6SM FEW060 FM051800 24010G20KT P6SM -SHRA BKN060 PROB30 0520/0524 2SM +TSRA BR BKN050CB RMK NXT FCST BY 050300Z